createdAt,value
2019-01-04T00:00:46.059Z,4.93
2019-01-04T00:03:15.710Z,3.93
2019-01-04T00:05:45.261Z,2.67
2019-01-04T00:08:14.632Z,2.77
2019-01-04T00:10:44.307Z,6.80
2019-01-04T00:13:14.068Z,5.83
2019-01-04T00:15:43.733Z,2.40
2019-01-04T00:18:13.109Z,9.50
2019-01-04T00:20:42.452Z,7.70
2019-01-04T00:23:12.505Z,2.77
2019-01-04T00:25:41.852Z,6.33
2019-01-04T00:28:11.248Z,4.37
2019-01-04T00:30:40.916Z,9.40
2019-01-04T00:33:11.302Z,6.40
2019-01-04T00:35:40.658Z,11.63
2019-01-04T00:38:09.967Z,10.40
2019-01-04T00:40:39.916Z,5.50
2019-01-04T00:43:09.732Z,13.10
2019-01-04T00:45:39.199Z,4.27
2019-01-04T00:48:08.570Z,6.00
2019-01-04T00:50:37.935Z,5.93
2019-01-04T00:53:07.683Z,13.40
2019-01-04T00:55:54.981Z,3.33
2019-01-04T00:59:01.752Z,8.70
2019-01-04T01:02:07.055Z,5.80
2019-01-04T01:05:17.411Z,5.60
2019-01-04T01:08:15.912Z,5.97
2019-01-04T01:11:32.535Z,9.70
2019-01-04T01:14:37.068Z,9.00
2019-01-04T01:18:02.299Z,19.27
2019-01-04T01:21:08.826Z,4.70
2019-01-04T01:24:24.601Z,4.57
2019-01-04T01:27:34.002Z,6.97
2019-01-04T01:30:49.226Z,8.37
2019-01-04T01:33:53.233Z,14.60
2019-01-04T01:36:58.007Z,9.73
2019-01-04T01:40:01.401Z,14.67
2019-01-04T01:43:07.191Z,9.63
2019-01-04T01:46:13.215Z,11.00
2019-01-04T01:48:55.696Z,14.27
2019-01-04T01:52:08.107Z,9.63
2019-01-04T01:54:37.807Z,14.37
2019-01-04T01:57:07.194Z,6.53
2019-01-04T01:59:36.527Z,9.03
2019-01-04T02:02:05.907Z,15.80
2019-01-04T02:04:35.372Z,18.17
2019-01-04T02:07:04.783Z,7.23
2019-01-04T02:09:34.494Z,8.90
2019-01-04T02:12:04.309Z,5.70
2019-01-04T02:14:33.741Z,12.50
2019-01-04T02:17:03.154Z,6.73
2019-01-04T02:19:35.160Z,8.20
2019-01-04T02:22:04.534Z,12.07
2019-01-04T02:24:33.971Z,6.77
2019-01-04T02:27:03.303Z,11.17
2019-01-04T02:29:33.380Z,7.70
2019-01-04T02:32:02.717Z,8.70
2019-01-04T02:34:34.215Z,5.13
2019-01-04T02:37:03.700Z,8.70
2019-01-04T02:39:33.074Z,10.53
2019-01-04T02:42:02.433Z,8.40
2019-01-04T02:44:31.856Z,6.43
2019-01-04T02:47:01.216Z,7.80
2019-01-04T02:49:30.889Z,10.97
2019-01-04T02:52:00.235Z,19.00
2019-01-04T02:54:30.007Z,8.47
2019-01-04T02:56:59.374Z,4.57
2019-01-04T02:59:28.765Z,9.40
2019-01-04T03:01:58.421Z,8.93
2019-01-04T03:04:27.853Z,12.33
2019-01-04T03:06:57.212Z,7.37
2019-01-04T03:09:27.381Z,8.37
2019-01-04T03:11:56.884Z,8.23
2019-01-04T03:14:26.263Z,10.73
2019-01-04T03:16:55.697Z,13.63
2019-01-04T03:19:25.025Z,17.53
2019-01-04T03:21:54.406Z,8.40
2019-01-04T03:24:23.770Z,12.03
2019-01-04T03:26:53.153Z,11.13
2019-01-04T03:29:22.842Z,10.23
2019-01-04T03:31:52.229Z,9.80
2019-01-04T03:34:21.486Z,12.20
2019-01-04T03:36:50.771Z,10.97
2019-01-04T03:39:20.092Z,16.27
2019-01-04T03:41:49.483Z,11.13
2019-01-04T03:44:18.797Z,7.63
2019-01-04T03:46:48.687Z,11.57
2019-01-04T03:49:17.966Z,8.47
2019-01-04T03:51:47.275Z,15.43
2019-01-04T03:54:16.641Z,11.63
2019-01-04T03:56:46.338Z,17.17
2019-01-04T03:59:15.710Z,10.40
2019-01-04T04:01:45.406Z,13.90
2019-01-04T04:04:14.820Z,11.50
2019-01-04T04:06:44.158Z,13.33
2019-01-04T04:09:13.526Z,14.17
2019-01-04T04:11:42.887Z,12.57
2019-01-04T04:14:12.534Z,16.47
2019-01-04T04:16:42.387Z,17.30
2019-01-04T04:19:11.797Z,10.83
2019-01-04T04:21:41.475Z,17.77
2019-01-04T04:24:11.158Z,14.63
2019-01-04T04:26:40.540Z,14.43
2019-01-04T04:29:10.009Z,11.70
2019-01-04T04:31:40.033Z,15.43
2019-01-04T04:34:09.831Z,15.53
2019-01-04T04:36:39.295Z,14.47
2019-01-04T04:39:08.977Z,19.20
2019-01-04T04:41:38.728Z,16.53
2019-01-04T04:44:08.310Z,18.53
2019-01-04T04:46:37.668Z,16.03
2019-01-04T04:49:07.053Z,15.03
2019-01-04T04:51:36.756Z,19.33
2019-01-04T04:54:06.429Z,14.40
2019-01-04T04:56:35.840Z,14.80
2019-01-04T04:59:05.521Z,20.13
2019-01-04T05:01:35.221Z,15.30
2019-01-04T05:04:04.618Z,24.80
2019-01-04T05:06:33.981Z,20.20
2019-01-04T05:09:04.213Z,18.73
2019-01-04T05:11:33.744Z,16.37
2019-01-04T05:14:03.129Z,23.70
2019-01-04T05:16:32.604Z,22.87
2019-01-04T05:19:01.972Z,14.53
2019-01-04T05:21:31.453Z,24.37
2019-01-04T05:24:00.854Z,22.03
2019-01-04T05:26:30.244Z,20.73
2019-01-04T05:29:00.330Z,16.33
2019-01-04T05:31:29.735Z,15.13
2019-01-04T05:33:59.407Z,12.47
2019-01-04T05:36:28.937Z,17.07
2019-01-04T05:38:58.277Z,17.73
2019-01-04T05:41:27.672Z,17.53
2019-01-04T05:43:57.012Z,20.40
2019-01-04T05:46:26.445Z,20.73
2019-01-04T05:48:55.802Z,18.93
2019-01-04T05:51:25.162Z,20.47
2019-01-04T05:53:54.562Z,22.70
2019-01-04T05:56:23.995Z,14.07
2019-01-04T05:58:53.868Z,23.57
2019-01-04T06:01:23.612Z,18.27
2019-01-04T06:03:52.975Z,14.93
2019-01-04T06:06:22.397Z,17.87
2019-01-04T06:08:51.865Z,15.33
2019-01-04T06:11:21.419Z,15.27
2019-01-04T06:13:51.516Z,22.73
2019-01-04T06:16:20.864Z,18.57
2019-01-04T06:18:50.182Z,21.90
2019-01-04T06:21:19.567Z,18.50
2019-01-04T06:23:48.923Z,17.57
2019-01-04T06:26:18.305Z,12.10
2019-01-04T06:28:47.681Z,14.03
2019-01-04T06:31:17.395Z,13.93
2019-01-04T06:33:46.908Z,23.03
2019-01-04T06:36:16.648Z,16.90
2019-01-04T06:38:46.000Z,15.87
2019-01-04T06:41:15.337Z,14.77
2019-01-04T06:43:44.779Z,11.30
2019-01-04T06:46:14.201Z,13.23
2019-01-04T06:48:44.035Z,7.10
2019-01-04T06:51:13.391Z,14.40
2019-01-04T06:53:42.776Z,12.03
2019-01-04T06:56:12.087Z,8.93
2019-01-04T06:58:41.755Z,11.23
2019-01-04T07:01:11.141Z,7.90
2019-01-04T07:03:40.380Z,16.77
2019-01-04T07:06:10.073Z,11.07
2019-01-04T07:08:39.433Z,17.33
2019-01-04T07:11:08.733Z,18.27
2019-01-04T07:13:38.720Z,16.30
2019-01-04T07:16:08.086Z,12.60
2019-01-04T07:18:37.402Z,12.23
2019-01-04T07:21:06.813Z,10.13
2019-01-04T07:23:36.281Z,10.10
2019-01-04T07:26:06.032Z,13.80
2019-01-04T07:28:35.363Z,14.17
2019-01-04T07:31:04.796Z,12.13
2019-01-04T07:33:34.278Z,15.57
2019-01-04T07:36:03.663Z,13.60
2019-01-04T07:38:33.044Z,16.70
2019-01-04T07:41:02.393Z,10.40
2019-01-04T07:43:31.869Z,17.17
2019-01-04T07:46:01.301Z,13.43
2019-01-04T07:48:30.677Z,9.37
2019-01-04T07:50:59.929Z,10.70
2019-01-04T07:53:29.331Z,10.63
2019-01-04T07:55:58.598Z,6.57
2019-01-04T07:58:28.091Z,6.80
2019-01-04T08:00:57.455Z,10.87
2019-01-04T08:03:27.161Z,7.73
2019-01-04T08:05:59.214Z,8.80
2019-01-04T08:08:28.595Z,7.03
2019-01-04T08:10:57.852Z,8.60
2019-01-04T08:13:27.163Z,8.10
2019-01-04T08:15:56.518Z,7.33
2019-01-04T08:18:26.011Z,9.47
2019-01-04T08:20:55.591Z,9.57
2019-01-04T08:23:25.220Z,5.43
2019-01-04T08:25:54.556Z,6.63
2019-01-04T08:28:23.867Z,4.87
2019-01-04T08:30:53.253Z,6.80
2019-01-04T08:33:22.698Z,5.87
2019-01-04T08:35:52.044Z,4.70
2019-01-04T08:38:21.394Z,7.37
2019-01-04T08:40:50.752Z,4.53
2019-01-04T08:43:20.067Z,7.07
2019-01-04T08:45:49.753Z,10.13
2019-01-04T08:48:19.132Z,5.43
2019-01-04T08:50:48.829Z,10.20
2019-01-04T08:53:20.066Z,11.80
2019-01-04T08:55:49.402Z,9.67
2019-01-04T08:58:18.904Z,7.17
2019-01-04T09:00:48.317Z,5.30
2019-01-04T09:03:18.051Z,12.67
2019-01-04T09:05:47.424Z,6.30
2019-01-04T09:08:16.795Z,11.83
2019-01-04T09:10:46.155Z,14.47
2019-01-04T09:13:15.485Z,8.93
2019-01-04T09:15:44.808Z,12.73
2019-01-04T09:18:14.534Z,18.10
2019-01-04T09:20:43.884Z,13.57
2019-01-04T09:23:13.282Z,11.33
2019-01-04T09:25:42.644Z,12.93
2019-01-04T09:28:17.898Z,12.37
2019-01-04T09:30:42.999Z,12.40
2019-01-04T09:33:12.970Z,25.83
2019-01-04T09:35:42.307Z,11.57
2019-01-04T09:38:11.699Z,18.50
2019-01-04T09:40:41.064Z,9.93
2019-01-04T09:43:10.449Z,22.63
2019-01-04T09:45:39.813Z,19.53
2019-01-04T09:48:09.415Z,18.57
2019-01-04T09:50:38.712Z,12.30
2019-01-04T09:53:08.065Z,15.20
2019-01-04T09:55:37.481Z,16.80
2019-01-04T09:58:06.882Z,12.23
2019-01-04T10:00:36.643Z,12.03
2019-01-04T10:03:06.043Z,17.87
2019-01-04T10:05:35.405Z,21.90
2019-01-04T10:08:04.800Z,12.37
2019-01-04T10:10:34.484Z,19.23
2019-01-04T10:13:04.457Z,22.00
2019-01-04T10:15:33.755Z,16.23
2019-01-04T10:18:03.171Z,18.47
2019-01-04T10:20:32.477Z,19.43
2019-01-04T10:23:01.864Z,17.70
2019-01-04T10:25:31.357Z,22.30
2019-01-04T10:28:00.677Z,23.63
2019-01-04T10:30:30.066Z,20.40
2019-01-04T10:32:59.720Z,16.50
2019-01-04T10:35:29.068Z,23.23
2019-01-04T10:37:58.393Z,19.90
2019-01-04T10:40:27.769Z,30.17
2019-01-04T10:42:57.085Z,20.47
2019-01-04T10:45:26.407Z,16.10
2019-01-04T10:47:55.931Z,16.30
2019-01-04T10:50:25.296Z,15.87
2019-01-04T10:52:54.724Z,18.90
2019-01-04T10:55:24.062Z,17.50
2019-01-04T10:57:53.417Z,26.20
2019-01-04T11:00:23.029Z,13.77
2019-01-04T11:02:52.410Z,16.90
2019-01-04T11:05:22.092Z,15.73
2019-01-04T11:07:51.483Z,19.83
2019-01-04T11:10:20.735Z,24.97
2019-01-04T11:12:50.112Z,16.77
2019-01-04T11:15:19.471Z,13.33
2019-01-04T11:17:48.874Z,20.13
2019-01-04T11:20:48.428Z,12.47
2019-01-04T11:23:41.875Z,18.13
2019-01-04T11:26:18.636Z,18.17
2019-01-04T11:29:19.672Z,17.40
2019-01-04T11:32:02.454Z,18.20
2019-01-04T11:34:58.682Z,12.80
2019-01-04T11:38:21.472Z,16.63
2019-01-04T11:41:26.347Z,12.90
2019-01-04T11:44:28.116Z,14.37
2019-01-04T11:47:20.027Z,20.13
2019-01-04T11:50:17.678Z,12.90
2019-01-04T11:52:51.529Z,23.20
2019-01-04T11:55:20.892Z,10.43
2019-01-04T11:57:50.447Z,23.33
2019-01-04T12:00:19.771Z,15.53
2019-01-04T12:02:49.646Z,15.10
2019-01-04T12:05:18.977Z,17.80
2019-01-04T12:07:48.348Z,17.03
2019-01-04T12:10:17.730Z,18.77
2019-01-04T12:12:47.108Z,20.20
2019-01-04T12:15:16.457Z,9.00
2019-01-04T12:17:45.797Z,16.43
2019-01-04T12:20:15.463Z,15.50
2019-01-04T12:22:44.728Z,17.03
2019-01-04T12:25:14.141Z,19.93
2019-01-04T12:27:43.434Z,15.87
2019-01-04T12:30:12.797Z,11.23
2019-01-04T12:32:42.631Z,12.73
2019-01-04T12:35:12.326Z,17.17
2019-01-04T12:37:42.021Z,15.13
2019-01-04T12:40:11.415Z,15.33
2019-01-04T12:42:40.773Z,19.87
2019-01-04T12:45:10.161Z,9.40
2019-01-04T12:47:39.485Z,18.67
2019-01-04T12:50:08.896Z,10.60
2019-01-04T12:52:38.259Z,21.17
2019-01-04T12:55:07.641Z,23.37
2019-01-04T12:57:37.014Z,15.50
2019-01-04T13:00:08.359Z,15.80
2019-01-04T13:02:37.846Z,9.43
2019-01-04T13:05:07.297Z,19.43
2019-01-04T13:07:36.685Z,12.17
2019-01-04T13:10:06.488Z,19.53
2019-01-04T13:12:35.836Z,16.00
2019-01-04T13:15:05.438Z,14.17
2019-01-04T13:17:34.833Z,11.30
2019-01-04T13:20:04.260Z,12.17
2019-01-04T13:22:33.609Z,26.67
2019-01-04T13:25:02.936Z,9.00
2019-01-04T13:27:32.583Z,8.53
2019-01-04T13:30:02.090Z,14.67
2019-01-04T13:32:31.669Z,11.20
2019-01-04T13:35:01.029Z,12.67
2019-01-04T13:37:30.411Z,15.80
2019-01-04T13:39:59.789Z,11.57
2019-01-04T13:42:29.634Z,13.30
2019-01-04T13:44:58.964Z,14.77
2019-01-04T13:47:32.254Z,10.87
2019-01-04T13:50:00.017Z,16.37
2019-01-04T13:52:29.345Z,13.37
2019-01-04T13:54:58.737Z,12.57
2019-01-04T13:57:28.143Z,17.40
2019-01-04T13:59:57.677Z,13.93
2019-01-04T14:02:27.027Z,9.17
2019-01-04T14:04:56.444Z,21.23
2019-01-04T14:07:25.985Z,15.93
2019-01-04T14:09:55.411Z,13.27
2019-01-04T14:12:24.695Z,12.67
2019-01-04T14:14:54.012Z,24.90
2019-01-04T14:17:23.712Z,17.50
2019-01-04T14:19:53.105Z,16.20
2019-01-04T14:22:22.563Z,13.00
2019-01-04T14:24:52.164Z,24.40
2019-01-04T14:27:22.079Z,16.67
2019-01-04T14:29:51.582Z,20.53
2019-01-04T14:32:20.969Z,16.73
2019-01-04T14:34:50.389Z,15.37
2019-01-04T14:37:19.775Z,25.47
2019-01-04T14:39:49.159Z,13.23
2019-01-04T14:42:18.526Z,13.17
2019-01-04T14:44:47.837Z,12.63
2019-01-04T14:47:17.326Z,18.90
2019-01-04T14:49:46.730Z,14.00
2019-01-04T14:52:16.241Z,23.50
2019-01-04T14:54:45.962Z,18.37
2019-01-04T14:57:15.316Z,17.80
2019-01-04T14:59:46.204Z,8.73
2019-01-04T15:02:15.957Z,16.73
2019-01-04T15:04:45.367Z,14.07
2019-01-04T15:07:14.728Z,16.70
2019-01-04T15:09:44.120Z,15.37
2019-01-04T15:12:13.496Z,16.20
2019-01-04T15:14:42.875Z,16.97
2019-01-04T15:17:12.369Z,11.83
2019-01-04T15:19:41.799Z,19.33
2019-01-04T15:22:11.130Z,15.67
2019-01-04T15:24:40.549Z,14.43
2019-01-04T15:27:10.151Z,20.53
2019-01-04T15:29:39.539Z,19.90
2019-01-04T15:32:08.930Z,14.07
2019-01-04T15:34:38.370Z,9.53
2019-01-04T15:37:07.734Z,9.77
2019-01-04T15:39:37.187Z,8.63
2019-01-04T15:42:06.585Z,5.73
2019-01-04T15:44:36.430Z,4.70
2019-01-04T15:47:05.735Z,9.47
2019-01-04T15:49:35.189Z,13.50
2019-01-04T15:52:04.861Z,7.93
2019-01-04T15:54:34.551Z,8.93
2019-01-04T15:57:03.955Z,8.13
2019-01-04T15:59:33.312Z,7.87
2019-01-04T16:02:02.899Z,9.30
2019-01-04T16:04:32.316Z,7.33
2019-01-04T16:07:01.652Z,4.83
2019-01-04T16:09:31.025Z,6.00
2019-01-04T16:12:00.346Z,9.87
2019-01-04T16:14:29.767Z,7.97
2019-01-04T16:16:59.073Z,19.33
2019-01-04T16:19:28.522Z,11.37
2019-01-04T16:21:58.735Z,10.87
2019-01-04T16:24:28.068Z,18.33
2019-01-04T16:26:57.954Z,21.00
2019-01-04T16:29:27.331Z,19.83
2019-01-04T16:31:58.376Z,26.73
2019-01-04T16:34:27.710Z,19.97
2019-01-04T16:36:57.500Z,20.87
2019-01-04T16:39:26.876Z,22.43
2019-01-04T16:41:56.373Z,19.63
2019-01-04T16:44:25.656Z,30.13
2019-01-04T16:46:55.043Z,23.17
2019-01-04T16:49:24.480Z,33.67
2019-01-04T16:51:53.878Z,26.07
2019-01-04T16:54:23.693Z,22.03
2019-01-04T16:56:53.732Z,30.27
2019-01-04T16:59:23.120Z,24.40
2019-01-04T17:01:52.412Z,33.17
2019-01-04T17:04:21.822Z,26.23
2019-01-04T17:06:51.685Z,33.93
2019-01-04T17:09:21.122Z,28.70
2019-01-04T17:11:50.509Z,38.93
2019-01-04T17:14:22.173Z,16.87
2019-01-04T17:16:51.615Z,25.23
2019-01-04T17:19:20.978Z,18.87
2019-01-04T17:21:50.696Z,17.93
2019-01-04T17:24:20.136Z,30.87
2019-01-04T17:26:49.510Z,35.23
2019-01-04T17:29:18.918Z,25.53
2019-01-04T17:31:48.509Z,23.73
2019-01-04T17:34:17.896Z,20.43
2019-01-04T17:36:47.397Z,23.13
2019-01-04T17:39:16.910Z,20.67
2019-01-04T17:41:46.417Z,24.43
2019-01-04T17:44:16.022Z,21.97
2019-01-04T17:46:45.404Z,16.80
2019-01-04T17:49:15.230Z,20.13
2019-01-04T17:51:44.507Z,28.63
2019-01-04T17:54:13.951Z,23.63
2019-01-04T17:56:43.317Z,18.20
2019-01-04T17:59:12.725Z,18.13
2019-01-04T18:01:42.057Z,21.70
2019-01-04T18:04:11.456Z,25.07
2019-01-04T18:06:40.833Z,17.13
2019-01-04T18:09:10.138Z,23.13
2019-01-04T18:11:39.958Z,16.83
2019-01-04T18:14:09.254Z,16.13
2019-01-04T18:16:38.626Z,19.57
2019-01-04T18:19:08.030Z,18.30
2019-01-04T18:21:37.400Z,25.23
2019-01-04T18:24:06.823Z,15.87
2019-01-04T18:26:36.219Z,13.43
2019-01-04T18:29:05.537Z,16.80
2019-01-04T18:31:35.279Z,15.23
2019-01-04T18:34:04.948Z,18.53
2019-01-04T18:36:34.294Z,19.53
2019-01-04T18:39:04.298Z,21.80
2019-01-04T18:41:33.688Z,20.23
2019-01-04T18:44:03.067Z,15.50
2019-01-04T18:46:32.420Z,21.03
2019-01-04T18:49:02.031Z,19.40
2019-01-04T18:51:31.379Z,19.30
2019-01-04T18:54:00.697Z,16.87
2019-01-04T18:56:30.055Z,19.47
2019-01-04T18:58:59.434Z,20.03
2019-01-04T19:01:28.783Z,16.60
2019-01-04T19:03:58.794Z,11.03
2019-01-04T19:06:31.096Z,15.53
2019-01-04T19:08:59.157Z,19.57
2019-01-04T19:11:28.858Z,11.40
2019-01-04T19:13:58.293Z,14.17
2019-01-04T19:16:27.637Z,21.77
2019-01-04T19:18:57.323Z,16.20
2019-01-04T19:21:26.689Z,16.07
2019-01-04T19:23:56.257Z,14.73
2019-01-04T19:26:25.626Z,12.20
2019-01-04T19:28:55.137Z,16.83
2019-01-04T19:31:24.556Z,13.83
2019-01-04T19:33:54.135Z,12.03
2019-01-04T19:36:23.869Z,15.87
2019-01-04T19:38:53.259Z,16.97
2019-01-04T19:41:22.806Z,17.03
2019-01-04T19:43:52.571Z,22.50
2019-01-04T19:46:21.926Z,21.33
2019-01-04T19:48:51.297Z,18.77
2019-01-04T19:51:20.564Z,15.73
2019-01-04T19:53:49.968Z,15.70
2019-01-04T19:56:19.202Z,16.97
2019-01-04T19:58:48.537Z,15.07
2019-01-04T20:01:17.928Z,14.33
2019-01-04T20:03:47.594Z,16.10
2019-01-04T20:07:15.575Z,18.23
2019-01-04T20:10:46.752Z,9.50
2019-01-04T20:14:16.627Z,16.57
2019-01-04T20:17:14.085Z,11.83
2019-01-04T20:20:10.236Z,21.67
2019-01-04T20:23:04.462Z,18.80
2019-01-04T20:25:51.492Z,14.90
2019-01-04T20:28:40.637Z,12.90
2019-01-04T20:31:41.173Z,8.67
2019-01-04T20:34:44.447Z,7.00
2019-01-04T20:37:47.633Z,14.50
2019-01-04T20:40:35.018Z,14.03
2019-01-04T20:43:41.590Z,10.93
2019-01-04T20:46:35.233Z,11.17
2019-01-04T20:49:24.644Z,8.07
2019-01-04T20:52:12.226Z,22.47
2019-01-04T20:55:15.400Z,18.00
2019-01-04T20:58:07.570Z,7.37
2019-01-04T21:00:59.206Z,5.47
2019-01-04T21:03:52.833Z,10.23
2019-01-04T21:06:39.910Z,8.60
2019-01-04T21:09:26.758Z,7.53
2019-01-04T21:12:13.901Z,9.47
2019-01-04T21:15:01.507Z,5.53
2019-01-04T21:17:52.854Z,4.17
2019-01-04T21:20:39.863Z,4.43
2019-01-04T21:23:27.253Z,4.27
2019-01-04T21:26:27.909Z,4.00
2019-01-04T21:29:19.463Z,5.00
2019-01-04T21:32:09.225Z,1.07
2019-01-04T21:35:00.673Z,1.77
2019-01-04T21:37:47.095Z,2.67
2019-01-04T21:40:38.995Z,6.03
2019-01-04T21:43:25.773Z,6.60
2019-01-04T21:46:13.239Z,3.10
2019-01-04T21:49:14.065Z,5.83
2019-01-04T21:51:57.751Z,6.23
2019-01-04T21:54:37.315Z,3.13
2019-01-04T21:57:29.463Z,6.33
2019-01-04T22:00:16.397Z,2.87
2019-01-04T22:03:03.119Z,4.67
2019-01-04T22:05:54.386Z,2.30
2019-01-04T22:08:48.332Z,4.53
2019-01-04T22:11:42.795Z,9.93
2019-01-04T22:14:37.608Z,3.20
2019-01-04T22:17:24.592Z,6.07
2019-01-04T22:20:25.024Z,5.90
2019-01-04T22:23:20.916Z,5.43
2019-01-04T22:26:09.391Z,2.73
2019-01-04T22:29:09.818Z,7.57
2019-01-04T22:31:58.282Z,5.03
2019-01-04T22:34:56.970Z,5.23
2019-01-04T22:37:54.209Z,5.30
2019-01-04T22:40:42.535Z,5.50
2019-01-04T22:43:40.008Z,11.43
2019-01-04T22:46:31.347Z,11.93
2019-01-04T22:49:25.498Z,11.93
2019-01-04T22:52:12.389Z,10.33
2019-01-04T22:54:59.649Z,12.90
2019-01-04T22:57:57.227Z,15.23
2019-01-04T23:01:00.616Z,17.93
2019-01-04T23:03:47.980Z,16.30
2019-01-04T23:06:34.661Z,21.00
2019-01-04T23:09:29.433Z,22.27
2019-01-04T23:12:16.357Z,20.40
2019-01-04T23:15:03.793Z,20.30
2019-01-04T23:17:50.516Z,20.43
2019-01-04T23:20:37.211Z,25.30
2019-01-04T23:23:24.090Z,28.17
2019-01-04T23:26:27.384Z,31.60
2019-01-04T23:29:15.780Z,28.37
2019-01-04T23:32:06.300Z,19.40
2019-01-04T23:35:10.102Z,27.00
2019-01-04T23:38:10.364Z,18.60
2019-01-04T23:40:51.903Z,25.57
2019-01-04T23:43:54.946Z,21.20
2019-01-04T23:46:58.152Z,21.50
2019-01-04T23:49:44.077Z,21.10
2019-01-04T23:52:42.158Z,26.10
2019-01-04T23:55:40.071Z,19.20
2019-01-04T23:58:28.389Z,13.53
